Time;durP1;ratioP1;P1;durP2;ratioP2;P2;SDS_P1;SDS_P2;PMS_P1;PMS_P2;Temp;Humidity;BMP_temperature;BMP_pressure;BME280_temperature;BME280_humidity;BME280_pressure;Samples;Min_cycle;Max_cycle;Signal;HPM_P1;HPM_P2
2023/09/06 00:00:51;;;;;;;8.32;6.90;;;21.00;98.90;;;;;;5092247;28;20081;-51
2023/09/06 00:03:37;;;;;;;7.03;6.13;;;21.00;98.80;;;;;;5080055;28;20044;-50
2023/09/06 00:06:23;;;;;;;8.38;6.78;;;20.80;99.10;;;;;;5089515;28;20028;-53
2023/09/06 00:09:10;;;;;;;10.15;6.60;;;20.80;99.30;;;;;;5076236;28;20093;-50
2023/09/06 00:11:56;;;;;;;6.93;6.13;;;20.80;99.20;;;;;;5084676;28;20492;-46
2023/09/06 00:14:42;;;;;;;7.75;6.13;;;20.70;99.20;;;;;;5076628;28;20381;-48
2023/09/06 00:17:28;;;;;;;7.40;6.32;;;20.70;99.60;;;;;;5091283;28;20439;-50
2023/09/06 00:20:20;;;;;;;10.65;6.40;;;20.70;99.40;;;;;;5091585;28;20494;-53
2023/09/06 00:23:09;;;;;;;9.98;6.80;;;20.70;99.50;;;;;;5091880;28;20035;-52
2023/09/06 00:25:55;;;;;;;9.13;6.65;;;20.60;99.80;;;;;;5091994;28;20024;-53
2023/09/06 00:28:40;;;;;;;7.07;5.85;;;20.50;99.80;;;;;;5091079;28;20020;-47
2023/09/06 00:31:28;;;;;;;7.43;5.78;;;20.50;99.90;;;;;;5090928;28;20056;-49
2023/09/06 00:34:15;;;;;;;9.35;6.80;;;20.40;99.90;;;;;;5091266;28;20078;-50
2023/09/06 00:37:05;;;;;;;8.27;6.22;;;20.30;99.90;;;;;;5091700;28;20032;-52
2023/09/06 00:39:51;;;;;;;6.82;6.13;;;20.10;99.90;;;;;;5091277;28;20031;-54
2023/09/06 00:42:36;;;;;;;9.65;6.07;;;19.90;99.90;;;;;;5077548;28;20024;-52
2023/09/06 00:45:23;;;;;;;9.07;6.38;;;19.70;99.90;;;;;;5091338;28;20028;-54
2023/09/06 00:48:11;;;;;;;9.27;6.40;;;19.70;99.90;;;;;;5090964;28;20500;-53
2023/09/06 00:50:57;;;;;;;11.02;6.40;;;19.60;99.90;;;;;;5090808;28;20408;-49
2023/09/06 00:53:43;;;;;;;9.80;6.32;;;19.60;99.90;;;;;;5090714;28;20594;-51
2023/09/06 00:56:30;;;;;;;8.23;6.43;;;19.70;99.90;;;;;;5090367;28;20823;-47
2023/09/06 00:59:21;;;;;;;7.50;6.20;;;19.60;99.90;;;;;;5091408;28;20158;-50
2023/09/06 01:02:08;;;;;;;9.95;6.70;;;19.60;99.90;;;;;;5090780;28;20361;-49
2023/09/06 01:04:54;;;;;;;10.13;6.40;;;19.60;99.90;;;;;;5076726;28;20032;-49
2023/09/06 01:07:45;;;;;;;9.77;6.60;;;19.50;99.90;;;;;;5090558;28;20107;-48
2023/09/06 01:10:34;;;;;;;10.38;6.47;;;19.50;99.90;;;;;;5090670;28;20099;-49
2023/09/06 01:13:20;;;;;;;10.23;6.68;;;19.50;99.90;;;;;;5090731;28;20043;-50
2023/09/06 01:16:06;;;;;;;8.10;6.15;;;19.50;99.90;;;;;;5090141;28;20016;-51
2023/09/06 01:18:53;;;;;;;8.57;6.25;;;19.60;99.90;;;;;;5090646;28;20453;-50
2023/09/06 01:21:47;;;;;;;7.63;5.93;;;19.70;99.90;;;;;;5090851;28;20036;-46
2023/09/06 01:24:34;;;;;;;9.32;6.55;;;19.70;99.90;;;;;;5091522;28;20059;-50
2023/09/06 01:27:20;;;;;;;8.63;6.05;;;19.60;99.90;;;;;;5089037;28;20032;-47
2023/09/06 01:30:07;;;;;;;8.18;6.13;;;19.60;99.90;;;;;;5090413;28;20032;-46
2023/09/06 01:32:53;;;;;;;7.85;6.70;;;19.50;99.90;;;;;;5089486;28;20106;-51
2023/09/06 01:35:39;;;;;;;8.15;6.30;;;19.40;99.90;;;;;;5090330;28;20028;-50
2023/09/06 01:38:25;;;;;;;7.28;6.20;;;19.40;99.90;;;;;;5090108;28;20111;-50
2023/09/06 01:41:12;;;;;;;8.02;6.07;;;19.40;99.90;;;;;;5090614;28;20024;-49
2023/09/06 01:44:00;;;;;;;8.10;6.10;;;19.40;99.90;;;;;;5088946;28;20024;-47
2023/09/06 01:46:46;;;;;;;6.63;6.03;;;19.50;99.90;;;;;;5089859;28;20038;-51
2023/09/06 01:49:32;;;;;;;8.45;6.18;;;19.50;99.90;;;;;;5091228;28;20035;-52
2023/09/06 01:52:18;;;;;;;9.38;6.43;;;19.70;99.90;;;;;;5090265;28;20033;-48
2023/09/06 01:55:05;;;;;;;9.02;5.78;;;19.90;99.90;;;;;;5090698;28;20087;-48
2023/09/06 01:57:51;;;;;;;7.80;6.03;;;19.90;99.90;;;;;;5089709;28;20024;-48
2023/09/06 02:00:37;;;;;;;8.85;6.40;;;19.80;99.90;;;;;;5075064;28;20035;-51
2023/09/06 02:03:23;;;;;;;8.57;6.57;;;19.60;99.90;;;;;;5090635;28;20028;-50
2023/09/06 02:06:09;;;;;;;7.50;6.20;;;19.50;99.90;;;;;;5090700;28;20039;-51
2023/09/06 02:08:56;;;;;;;8.50;6.22;;;19.40;99.90;;;;;;5089953;28;20404;-48
2023/09/06 02:11:42;;;;;;;7.30;5.72;;;19.50;99.90;;;;;;5090175;28;20079;-51
2023/09/06 02:14:28;;;;;;;8.75;6.60;;;19.40;99.90;;;;;;5090169;28;20059;-54
2023/09/06 02:17:14;;;;;;;9.25;6.70;;;19.30;99.90;;;;;;5089314;28;20119;-51
2023/09/06 02:23:05;;;;;;;7.70;6.25;;;19.00;99.90;;;;;;5088918;28;20031;-47
2023/09/06 02:25:50;;;;;;;6.75;6.05;;;18.80;99.90;;;;;;5090239;28;20032;-49
2023/09/06 02:28:36;;;;;;;8.85;6.68;;;18.70;99.90;;;;;;5089780;28;20075;-47
2023/09/06 02:31:22;;;;;;;7.47;6.05;;;18.60;99.90;;;;;;5090259;28;20036;-48
2023/09/06 02:34:08;;;;;;;7.53;6.38;;;18.60;99.90;;;;;;5093898;28;20032;-50
2023/09/06 02:36:56;;;;;;;12.52;6.40;;;18.60;99.90;;;;;;5092843;28;20032;-48
2023/09/06 02:39:42;;;;;;;9.07;6.28;;;18.50;99.90;;;;;;5094678;28;20020;-48
2023/09/06 02:42:28;;;;;;;7.63;5.93;;;18.50;99.90;;;;;;5094876;28;20024;-51
2023/09/06 02:45:14;;;;;;;8.90;6.63;;;18.50;99.90;;;;;;5094130;28;20032;-51
2023/09/06 02:48:06;;;;;;;8.93;6.38;;;18.40;99.90;;;;;;5094376;28;20028;-51
2023/09/06 02:50:52;;;;;;;7.97;6.03;;;18.30;99.90;;;;;;5093347;28;20035;-52
2023/09/06 02:53:44;;;;;;;8.75;6.28;;;18.30;99.90;;;;;;5093230;28;20089;-52
2023/09/06 02:56:30;;;;;;;7.90;6.05;;;18.30;99.90;;;;;;5094171;28;20043;-48
2023/09/06 02:59:15;;;;;;;7.53;5.95;;;18.40;99.90;;;;;;5094372;28;20101;-45
2023/09/06 03:02:05;;;;;;;7.18;6.13;;;18.50;99.90;;;;;;5077987;28;20020;-47
2023/09/06 03:05:03;;;;;;;6.85;5.85;;;18.50;99.90;;;;;;5093110;28;20024;-52
2023/09/06 03:07:49;;;;;;;8.25;6.35;;;18.50;99.90;;;;;;5092798;28;20028;-51
2023/09/06 03:10:35;;;;;;;7.50;6.15;;;18.40;99.90;;;;;;5092148;28;20500;-52
2023/09/06 03:13:21;;;;;;;8.52;6.07;;;18.40;99.90;;;;;;5094049;28;20536;-54
2023/09/06 03:16:07;;;;;;;7.80;6.07;;;18.40;99.90;;;;;;5092639;28;20059;-49
2023/09/06 03:18:54;;;;;;;9.63;6.05;;;18.30;99.90;;;;;;5094295;28;20422;-53
2023/09/06 03:21:40;;;;;;;9.25;6.32;;;18.40;99.90;;;;;;5093309;28;20028;-53
2023/09/06 03:24:26;;;;;;;9.13;5.28;;;18.40;99.90;;;;;;5094185;28;20027;-53
2023/09/06 03:27:16;;;;;;;8.93;5.85;;;18.40;99.90;;;;;;5092126;28;20083;-49
2023/09/06 03:30:06;;;;;;;8.30;6.22;;;18.40;99.90;;;;;;5078647;28;20401;-52
2023/09/06 03:32:53;;;;;;;6.80;5.63;;;18.40;99.90;;;;;;5093605;28;20024;-52
2023/09/06 03:35:41;;;;;;;7.68;5.82;;;18.30;99.90;;;;;;5093499;28;20686;-53
2023/09/06 03:38:28;;;;;;;7.93;5.90;;;18.40;99.90;;;;;;5092570;28;20057;-55
2023/09/06 03:41:16;;;;;;;9.27;6.00;;;18.40;99.90;;;;;;5092396;28;20058;-54
2023/09/06 03:44:02;;;;;;;8.30;6.43;;;18.20;99.90;;;;;;5092532;28;20515;-55
2023/09/06 03:46:48;;;;;;;8.27;6.40;;;18.00;99.90;;;;;;5092702;28;20043;-53
2023/09/06 03:49:35;;;;;;;7.63;6.43;;;17.90;99.90;;;;;;5093446;28;20031;-52
2023/09/06 03:52:25;;;;;;;10.10;6.65;;;17.90;99.90;;;;;;5093150;28;20050;-50
2023/09/06 03:55:11;;;;;;;7.70;6.30;;;17.90;99.90;;;;;;5093239;28;20100;-53
2023/09/06 03:57:57;;;;;;;8.57;6.30;;;17.90;99.90;;;;;;5077195;28;20226;-54
2023/09/06 04:00:44;;;;;;;8.98;6.18;;;18.00;99.90;;;;;;5076702;28;20028;-52
2023/09/06 04:03:30;;;;;;;8.38;6.85;;;18.00;99.90;;;;;;5089687;28;20154;-54
2023/09/06 04:06:16;;;;;;;17.30;12.73;;;18.10;99.90;;;;;;5092106;28;20028;-52
2023/09/06 04:09:02;;;;;;;14.68;10.85;;;18.10;99.90;;;;;;5093678;28;20438;-51
2023/09/06 04:11:48;;;;;;;11.07;8.13;;;18.10;99.90;;;;;;5088302;28;20024;-52
2023/09/06 04:14:35;;;;;;;9.43;6.80;;;18.00;99.90;;;;;;5072560;28;20580;-52
2023/09/06 04:17:21;;;;;;;13.38;6.80;;;18.00;99.90;;;;;;5082569;28;20561;-51
2023/09/06 04:20:20;;;;;;;14.13;6.13;;;18.00;99.90;;;;;;5091876;28;20036;-52
2023/09/06 04:23:08;;;;;;;7.88;6.05;;;17.90;99.90;;;;;;5091476;28;20071;-51
2023/09/06 04:25:55;;;;;;;9.60;6.75;;;17.80;99.90;;;;;;5090891;28;20454;-51
2023/09/06 04:28:41;;;;;;;10.18;6.65;;;17.80;99.90;;;;;;5076256;28;20032;-51
2023/09/06 04:31:26;;;;;;;8.15;6.85;;;17.80;99.90;;;;;;5091317;28;20025;-55
2023/09/06 04:34:12;;;;;;;7.07;6.25;;;17.80;99.90;;;;;;5090508;28;20020;-54
2023/09/06 04:36:58;;;;;;;7.80;6.50;;;17.70;99.90;;;;;;5091753;28;20059;-52
2023/09/06 04:39:44;;;;;;;8.13;6.88;;;17.70;99.90;;;;;;5091387;28;20034;-51
2023/09/06 04:42:32;;;;;;;8.68;6.78;;;17.50;99.90;;;;;;5091197;28;20028;-51
2023/09/06 04:45:18;;;;;;;8.73;6.97;;;17.50;99.90;;;;;;5111359;28;20028;-49
2023/09/06 04:48:11;;;;;;;10.20;7.32;;;17.60;99.90;;;;;;5099014;28;20032;-53
2023/09/06 04:50:59;;;;;;;9.77;6.65;;;17.70;99.90;;;;;;5076303;28;20028;-52
2023/09/06 04:53:45;;;;;;;8.80;6.32;;;17.60;99.90;;;;;;5111818;28;20026;-48
2023/09/06 04:56:31;;;;;;;9.68;6.57;;;17.70;99.90;;;;;;5110825;28;20015;-48
2023/09/06 04:59:17;;;;;;;11.23;7.03;;;17.70;99.90;;;;;;5111945;28;20035;-52
2023/09/06 05:02:03;;;;;;;9.45;7.32;;;17.70;99.90;;;;;;5086015;28;20382;-47
2023/09/06 05:04:50;;;;;;;10.73;7.20;;;17.60;99.90;;;;;;5083549;28;20047;-49
2023/09/06 05:07:36;;;;;;;11.52;6.93;;;17.60;99.90;;;;;;5090560;28;20058;-52
2023/09/06 05:10:22;;;;;;;18.10;8.70;;;17.70;99.90;;;;;;5090607;28;20020;-54
2023/09/06 05:13:11;;;;;;;13.75;7.80;;;17.80;99.90;;;;;;5091008;28;20099;-54
2023/09/06 05:16:01;;;;;;;12.80;7.72;;;17.70;99.90;;;;;;5090639;28;20490;-54
2023/09/06 05:18:47;;;;;;;10.48;7.75;;;17.80;99.90;;;;;;5091476;28;20028;-53
2023/09/06 05:21:35;;;;;;;8.90;7.60;;;17.90;99.90;;;;;;5090673;28;20032;-53
2023/09/06 05:24:20;;;;;;;14.07;8.52;;;17.80;99.90;;;;;;5091184;28;20062;-54
2023/09/06 05:27:06;;;;;;;13.02;9.82;;;17.80;99.90;;;;;;5066941;28;20043;-54
2023/09/06 05:29:53;;;;;;;13.07;8.95;;;17.90;99.90;;;;;;5071821;28;20108;-52
2023/09/06 05:32:39;;;;;;;9.00;8.20;;;17.90;99.90;;;;;;5070451;28;20036;-52
2023/09/06 05:35:26;;;;;;;8.43;7.30;;;17.90;99.90;;;;;;5070922;28;20020;-54
2023/09/06 05:38:12;;;;;;;9.50;7.53;;;18.00;99.90;;;;;;5071409;28;20059;-52
2023/09/06 05:40:58;;;;;;;9.65;7.47;;;18.00;99.90;;;;;;5071048;28;20021;-48
2023/09/06 05:43:44;;;;;;;8.40;7.18;;;18.10;99.90;;;;;;5070583;28;20075;-51
2023/09/06 05:46:30;;;;;;;11.57;8.38;;;18.10;99.90;;;;;;5088238;28;20489;-52
2023/09/06 05:49:16;;;;;;;8.73;7.72;;;18.20;99.90;;;;;;5090650;28;20089;-51
2023/09/06 05:52:03;;;;;;;9.82;8.15;;;18.20;99.90;;;;;;5085573;28;20028;-50
2023/09/06 05:54:49;;;;;;;10.90;8.18;;;18.30;99.90;;;;;;5089157;28;20161;-49
2023/09/06 05:57:35;;;;;;;9.80;7.70;;;18.40;99.90;;;;;;5089740;28;20083;-50
2023/09/06 06:00:21;;;;;;;10.48;7.97;;;18.40;99.90;;;;;;5090468;28;20511;-54
2023/09/06 06:03:10;;;;;;;9.15;7.72;;;18.40;99.90;;;;;;5090707;28;20111;-53
2023/09/06 06:05:56;;;;;;;10.68;8.48;;;18.50;99.90;;;;;;5091476;28;20097;-52
2023/09/06 06:08:42;;;;;;;9.65;8.20;;;18.50;99.90;;;;;;5094033;28;20060;-53
2023/09/06 06:11:28;;;;;;;11.45;8.43;;;18.40;99.90;;;;;;5087048;28;20025;-50
2023/09/06 06:14:14;;;;;;;9.82;8.70;;;18.30;99.90;;;;;;5085920;28;20027;-51
2023/09/06 06:17:00;;;;;;;10.00;8.43;;;18.30;99.90;;;;;;5085323;28;20567;-50
2023/09/06 06:19:47;;;;;;;10.10;9.00;;;18.20;99.90;;;;;;5083732;28;20500;-53
2023/09/06 06:22:38;;;;;;;12.20;8.73;;;18.30;99.90;;;;;;5084159;28;20031;-55
2023/09/06 06:25:24;;;;;;;12.02;9.00;;;18.40;99.90;;;;;;5083299;28;20025;-55
2023/09/06 06:28:10;;;;;;;9.23;8.15;;;18.50;99.90;;;;;;5085580;28;20028;-54
2023/09/06 06:30:56;;;;;;;10.80;8.35;;;18.70;99.90;;;;;;5080185;28;20032;-55
2023/09/06 06:33:43;;;;;;;11.70;8.52;;;18.90;99.90;;;;;;5087579;28;20020;-49
2023/09/06 06:36:31;;;;;;;13.68;8.93;;;19.00;99.90;;;;;;5093239;28;20036;-49
2023/09/06 06:39:17;;;;;;;10.93;8.65;;;19.20;99.90;;;;;;5079058;28;20027;-47
2023/09/06 06:42:03;;;;;;;15.50;8.63;;;19.40;99.90;;;;;;5068189;28;20033;-52
2023/09/06 06:44:49;;;;;;;9.85;8.02;;;19.50;99.90;;;;;;5074224;28;20021;-53
2023/09/06 06:47:36;;;;;;;10.25;7.72;;;19.60;99.90;;;;;;5073313;28;20060;-53
2023/09/06 06:50:22;;;;;;;9.32;8.00;;;19.70;99.90;;;;;;5082884;28;20493;-49
2023/09/06 06:53:08;;;;;;;10.40;8.07;;;19.80;99.90;;;;;;5094728;28;20069;-52
2023/09/06 06:55:54;;;;;;;12.38;8.73;;;19.90;99.90;;;;;;5094196;28;20531;-55
2023/09/06 06:58:39;;;;;;;13.50;8.02;;;20.00;99.90;;;;;;5093269;28;20593;-52
2023/09/06 07:01:27;;;;;;;10.57;8.10;;;20.10;99.90;;;;;;5079599;28;20029;-50
2023/09/06 07:04:13;;;;;;;14.88;8.52;;;20.10;99.90;;;;;;5094587;28;20028;-54
2023/09/06 07:06:59;;;;;;;9.95;7.90;;;20.10;99.90;;;;;;5088155;28;20047;-49
2023/09/06 07:09:45;;;;;;;14.38;7.97;;;20.30;99.80;;;;;;5059099;28;20485;-55
2023/09/06 07:12:31;;;;;;;8.90;7.80;;;20.50;99.30;;;;;;5072578;28;20056;-52
2023/09/06 07:15:17;;;;;;;12.57;8.02;;;20.60;98.70;;;;;;5073892;28;20029;-51
2023/09/06 07:18:06;;;;;;;8.07;7.28;;;20.70;98.20;;;;;;5081412;28;20430;-50
2023/09/06 07:20:52;;;;;;;8.75;7.35;;;20.70;98.30;;;;;;5084639;28;20028;-51
2023/09/06 07:23:38;;;;;;;24.52;16.33;;;20.80;98.30;;;;;;5083104;28;20525;-51
2023/09/06 07:26:24;;;;;;;12.20;9.85;;;20.90;98.00;;;;;;5080712;28;20056;-50
2023/09/06 07:29:10;;;;;;;10.25;8.15;;;21.00;97.70;;;;;;5085037;28;20090;-50
2023/09/06 07:31:56;;;;;;;8.13;7.32;;;21.10;97.60;;;;;;5084973;28;20031;-52
2023/09/06 07:34:44;;;;;;;8.93;7.20;;;21.20;97.40;;;;;;5083637;28;20028;-53
2023/09/06 07:37:30;;;;;;;8.23;6.88;;;21.20;97.20;;;;;;5084967;28;20020;-50
2023/09/06 07:40:16;;;;;;;10.93;7.45;;;21.30;97.10;;;;;;5075071;28;20119;-52
2023/09/06 07:43:01;;;;;;;8.93;7.43;;;21.40;96.90;;;;;;5072389;28;20051;-51
2023/09/06 07:45:47;;;;;;;10.73;7.75;;;21.50;96.60;;;;;;5074141;28;20035;-51
2023/09/06 07:48:35;;;;;;;9.48;7.50;;;21.60;96.20;;;;;;5073832;28;20031;-50
2023/09/06 07:51:21;;;;;;;9.05;7.43;;;21.70;96.20;;;;;;5072940;28;20025;-54
2023/09/06 07:54:07;;;;;;;10.93;7.80;;;21.80;95.90;;;;;;5072982;28;20028;-52
2023/09/06 07:56:53;;;;;;;9.05;7.60;;;21.80;95.80;;;;;;5072862;28;20060;-52
2023/09/06 07:59:39;;;;;;;7.97;6.72;;;21.90;95.90;;;;;;5092315;28;20478;-52
2023/09/06 08:02:25;;;;;;;11.27;7.30;;;22.10;95.20;;;;;;5094347;27;20020;-50
2023/09/06 08:05:11;;;;;;;9.13;7.22;;;22.00;95.20;;;;;;5092142;27;20020;-49
2023/09/06 08:07:58;;;;;;;10.05;6.75;;;22.10;95.30;;;;;;5093592;28;20065;-49
2023/09/06 08:10:45;;;;;;;7.88;7.05;;;22.20;95.00;;;;;;5082009;28;20102;-49
2023/09/06 08:13:31;;;;;;;8.60;6.82;;;22.30;95.00;;;;;;5097330;28;20031;-54
2023/09/06 08:16:19;;;;;;;11.77;7.22;;;22.40;94.90;;;;;;5091126;28;20009;-55
2023/09/06 08:19:04;;;;;;;10.27;8.13;;;22.40;94.80;;;;;;5090953;28;20032;-49
2023/09/06 08:21:50;;;;;;;9.05;7.07;;;22.40;94.70;;;;;;5092688;28;20105;-52
2023/09/06 08:24:36;;;;;;;7.53;6.43;;;22.50;94.70;;;;;;5092095;28;20048;-52
2023/09/06 08:27:22;;;;;;;9.63;7.05;;;22.60;94.80;;;;;;5085911;28;20037;-50
2023/09/06 08:30:14;;;;;;;11.50;7.22;;;22.70;94.60;;;;;;5089588;28;20103;-48
2023/09/06 08:33:00;;;;;;;8.20;6.65;;;22.80;94.00;;;;;;5090029;28;20039;-50
2023/09/06 08:35:46;;;;;;;8.52;7.68;;;22.90;93.80;;;;;;5088295;28;20040;-50
2023/09/06 08:38:32;;;;;;;8.15;6.97;;;23.00;93.60;;;;;;5089742;28;20028;-51
2023/09/06 08:41:20;;;;;;;8.32;6.53;;;23.00;93.20;;;;;;5091081;28;20028;-50
2023/09/06 08:44:11;;;;;;;9.65;7.25;;;23.10;93.10;;;;;;5088492;28;20017;-51
2023/09/06 08:47:01;;;;;;;10.40;6.40;;;23.20;92.20;;;;;;5084096;28;20035;-52
2023/09/06 08:49:47;;;;;;;9.90;6.45;;;23.10;92.50;;;;;;5090985;28;20077;-55
2023/09/06 08:52:34;;;;;;;10.27;6.65;;;23.10;92.70;;;;;;5091117;28;20027;-47
2023/09/06 08:55:21;;;;;;;6.90;6.20;;;23.20;92.80;;;;;;5091667;28;20024;-46
2023/09/06 08:58:06;;;;;;;10.07;6.68;;;23.30;92.70;;;;;;5084499;28;20024;-44
2023/09/06 09:00:53;;;;;;;7.65;6.32;;;23.30;92.60;;;;;;5081678;28;20031;-47
2023/09/06 09:03:39;;;;;;;9.57;6.60;;;23.50;92.60;;;;;;5092383;28;20062;-44
2023/09/06 09:06:25;;;;;;;8.55;6.43;;;23.60;92.10;;;;;;5092973;28;20401;-46
2023/09/06 09:09:18;;;;;;;10.23;6.60;;;23.70;91.60;;;;;;5083535;28;20075;-47
2023/09/06 09:12:04;;;;;;;9.30;5.72;;;23.80;91.20;;;;;;5064556;28;20488;-49
2023/09/06 09:14:51;;;;;;;6.95;6.20;;;23.80;90.90;;;;;;5079966;28;20397;-48
2023/09/06 09:17:39;;;;;;;11.82;6.53;;;23.90;91.00;;;;;;5079389;28;20021;-48
2023/09/06 09:20:26;;;;;;;8.68;6.63;;;24.00;90.90;;;;;;5085091;28;20396;-45
2023/09/06 09:23:16;;;;;;;9.07;6.25;;;24.10;91.00;;;;;;5075865;28;20037;-48
2023/09/06 09:26:02;;;;;;;9.02;6.07;;;24.10;91.20;;;;;;5083962;28;20498;-47
2023/09/06 09:28:51;;;;;;;7.00;6.22;;;24.10;91.50;;;;;;5080686;28;20521;-48
2023/09/06 09:31:40;;;;;;;8.80;6.28;;;24.40;90.50;;;;;;5086003;28;20460;-50
2023/09/06 09:34:26;;;;;;;7.57;6.10;;;24.40;90.00;;;;;;5075247;28;20081;-50
2023/09/06 09:37:12;;;;;;;7.97;5.57;;;24.50;90.00;;;;;;5088819;28;20032;-47
2023/09/06 09:39:58;;;;;;;9.55;6.05;;;24.60;90.30;;;;;;5088870;28;20012;-46
2023/09/06 09:42:54;;;;;;;8.13;6.22;;;24.70;90.40;;;;;;5092564;28;20265;-46
2023/09/06 09:45:43;;;;;;;8.60;6.13;;;24.80;90.50;;;;;;5094773;28;20031;-44
2023/09/06 09:48:31;;;;;;;8.70;5.80;;;24.80;90.50;;;;;;5077879;28;20085;-44
2023/09/06 09:51:19;;;;;;;9.65;6.30;;;24.80;90.10;;;;;;5080058;28;20016;-47
2023/09/06 09:54:06;;;;;;;8.93;5.80;;;24.90;89.60;;;;;;5094922;28;20424;-50
2023/09/06 09:59:26;;;;;;;11.10;6.20;;;25.20;89.00;;;;;;5008323;28;20476;-54
2023/09/06 10:02:15;;;;;;;9.95;5.68;;;25.20;88.90;;;;;;4998765;28;20018;-57
2023/09/06 10:05:02;;;;;;;8.35;6.10;;;25.30;89.10;;;;;;5012244;28;20048;-57
2023/09/06 10:07:49;;;;;;;6.47;5.80;;;25.50;88.90;;;;;;5020573;28;20041;-56
2023/09/06 10:10:39;;;;;;;7.13;5.80;;;25.60;88.30;;;;;;5031230;28;20057;-55
2023/09/06 10:13:26;;;;;;;7.47;5.93;;;25.50;87.90;;;;;;5029946;28;20022;-53
2023/09/06 10:16:13;;;;;;;12.57;6.18;;;25.60;85.40;;;;;;5024785;28;20025;-51
2023/09/06 10:19:00;;;;;;;12.85;6.03;;;25.70;84.80;;;;;;5031229;28;20472;-49
2023/09/06 10:21:47;;;;;;;6.75;6.00;;;25.80;85.60;;;;;;5029797;28;20382;-50
2023/09/06 10:24:34;;;;;;;6.15;5.50;;;25.90;85.50;;;;;;5030067;28;20049;-56
2023/09/06 10:27:31;;;;;;;7.50;5.55;;;25.90;85.10;;;;;;5028273;28;20400;-55
2023/09/06 10:30:28;;;;;;;6.70;6.00;;;26.10;84.50;;;;;;5022792;28;20076;-56
2023/09/06 10:33:32;;;;;;;7.25;5.70;;;26.10;84.80;;;;;;5026715;28;20061;-52
2023/09/06 10:36:20;;;;;;;8.17;5.87;;;26.10;84.50;;;;;;5017835;28;20405;-49
2023/09/06 10:39:14;;;;;;;9.90;6.45;;;26.10;84.90;;;;;;5028933;28;20040;-50
2023/09/06 10:42:09;;;;;;;6.30;5.50;;;26.20;84.80;;;;;;5016276;28;20159;-50
2023/09/06 10:44:55;;;;;;;6.50;5.43;;;26.20;84.90;;;;;;5029930;28;20120;-53
2023/09/06 10:47:42;;;;;;;7.97;6.18;;;26.20;84.80;;;;;;5027551;28;20057;-49
2023/09/06 10:50:29;;;;;;;8.25;6.40;;;26.30;85.90;;;;;;5017497;28;20397;-53
2023/09/06 10:53:19;;;;;;;7.68;5.97;;;26.30;85.10;;;;;;5031070;28;20037;-51
2023/09/06 10:56:05;;;;;;;6.00;5.40;;;26.30;84.50;;;;;;5030651;28;20038;-50
2023/09/06 10:58:56;;;;;;;7.90;6.07;;;26.40;84.40;;;;;;5025055;28;20046;-49
2023/09/06 11:02:09;;;;;;;8.68;5.95;;;26.50;84.80;;;;;;5015388;28;20033;-56
2023/09/06 11:05:30;;;;;;;8.07;6.00;;;26.60;83.70;;;;;;5029153;28;20029;-52
2023/09/06 11:08:29;;;;;;;9.52;6.47;;;26.50;83.60;;;;;;5014191;28;20030;-51
2023/09/06 11:11:15;;;;;;;6.15;5.55;;;26.50;84.60;;;;;;5012343;28;20431;-53
2023/09/06 11:14:02;;;;;;;7.43;5.70;;;26.60;84.50;;;;;;5012017;28;20093;-53
2023/09/06 11:16:48;;;;;;;6.57;5.22;;;26.70;83.40;;;;;;5010719;28;20030;-53
2023/09/06 11:19:37;;;;;;;9.90;6.25;;;26.60;82.50;;;;;;5012109;28;20180;-53
2023/09/06 11:22:23;;;;;;;7.13;5.35;;;26.70;82.30;;;;;;5009581;28;20029;-56
2023/09/06 11:25:19;;;;;;;5.63;5.05;;;26.50;82.30;;;;;;5010572;28;20026;-57
2023/09/06 11:28:21;;;;;;;8.00;5.50;;;26.50;83.70;;;;;;5014377;28;20042;-57
2023/09/06 11:31:21;;;;;;;8.93;5.63;;;26.60;82.80;;;;;;5011469;28;20037;-52
2023/09/06 11:34:11;;;;;;;6.85;5.40;;;26.70;83.20;;;;;;5012488;28;20026;-52
2023/09/06 11:36:58;;;;;;;9.73;6.75;;;26.80;82.10;;;;;;5011744;28;20256;-51
2023/09/06 11:39:45;;;;;;;5.97;5.07;;;26.90;82.00;;;;;;5010352;28;20034;-52
2023/09/06 11:42:33;;;;;;;5.93;5.18;;;26.90;82.20;;;;;;5004433;28;20100;-49
2023/09/06 11:45:23;;;;;;;8.10;5.80;;;26.90;80.90;;;;;;5019570;28;20053;-51
2023/09/06 11:48:09;;;;;;;5.97;5.40;;;26.90;80.50;;;;;;5017520;28;20022;-52
2023/09/06 11:51:08;;;;;;;6.70;5.53;;;26.90;80.70;;;;;;5016912;28;20064;-50
2023/09/06 11:54:00;;;;;;;6.35;5.38;;;26.90;81.20;;;;;;5027778;28;20029;-54
2023/09/06 11:56:47;;;;;;;7.97;6.13;;;26.90;81.50;;;;;;5028012;28;20021;-51
2023/09/06 11:59:33;;;;;;;6.85;5.82;;;27.10;81.50;;;;;;5016622;28;20099;-49
2023/09/06 12:02:21;;;;;;;8.02;6.93;;;27.10;80.90;;;;;;5024398;28;20392;-51
2023/09/06 12:05:11;;;;;;;9.48;6.20;;;27.20;80.30;;;;;;5012067;28;20033;-52
2023/09/06 12:08:01;;;;;;;6.35;5.40;;;27.20;80.10;;;;;;5030202;28;20400;-50
2023/09/06 12:10:52;;;;;;;7.43;5.70;;;27.30;79.90;;;;;;5030254;28;20555;-51
2023/09/06 12:13:38;;;;;;;6.65;6.05;;;27.30;79.40;;;;;;5013413;28;20089;-53
2023/09/06 12:16:24;;;;;;;7.90;6.28;;;27.20;79.10;;;;;;5029885;28;20025;-54
2023/09/06 12:19:17;;;;;;;6.22;5.53;;;27.30;79.20;;;;;;5029149;28;20432;-56
2023/09/06 12:22:05;;;;;;;6.65;6.05;;;27.40;79.20;;;;;;5024315;28;20037;-54
2023/09/06 12:24:52;;;;;;;7.50;5.97;;;27.40;79.00;;;;;;5013648;28;20038;-52
2023/09/06 12:27:37;;;;;;;6.20;5.10;;;27.40;78.20;;;;;;5029283;28;20052;-54
2023/09/06 12:30:24;;;;;;;8.20;5.75;;;27.40;78.30;;;;;;5022763;28;20117;-52
2023/09/06 12:33:10;;;;;;;8.52;5.88;;;27.50;79.20;;;;;;5018252;28;20065;-51
2023/09/06 12:35:59;;;;;;;6.22;5.53;;;27.70;78.80;;;;;;5015651;28;20048;-49
2023/09/06 12:38:45;;;;;;;6.60;5.93;;;28.00;77.50;;;;;;5021593;28;20451;-53
2023/09/06 12:41:31;;;;;;;6.03;5.20;;;28.00;77.20;;;;;;5027232;28;20141;-52
2023/09/06 12:44:18;;;;;;;8.27;6.10;;;28.10;78.00;;;;;;5028845;28;20041;-58
2023/09/06 12:47:06;;;;;;;9.05;5.80;;;28.20;77.90;;;;;;5027969;28;20056;-56
2023/09/06 12:49:52;;;;;;;6.10;5.00;;;28.30;77.70;;;;;;5029109;28;20460;-57
2023/09/06 12:52:38;;;;;;;5.97;5.20;;;28.40;76.40;;;;;;5029296;28;20030;-53
2023/09/06 12:55:24;;;;;;;6.72;6.00;;;28.50;76.50;;;;;;5028853;28;20037;-54
2023/09/06 12:58:11;;;;;;;6.22;5.50;;;28.70;76.90;;;;;;4996632;28;20067;-56
2023/09/06 13:00:57;;;;;;;8.30;5.35;;;28.70;77.20;;;;;;4997833;28;20044;-54
2023/09/06 13:03:44;;;;;;;8.82;6.03;;;28.70;76.20;;;;;;5027681;28;20042;-51
2023/09/06 13:06:31;;;;;;;5.82;5.32;;;28.80;76.70;;;;;;5029333;28;20044;-56
2023/09/06 13:09:17;;;;;;;7.50;5.28;;;28.90;76.80;;;;;;5013496;28;20026;-54
2023/09/06 13:12:03;;;;;;;7.70;5.03;;;29.10;75.80;;;;;;5027588;28;20029;-54
2023/09/06 13:14:49;;;;;;;9.52;6.40;;;29.00;75.20;;;;;;5029573;28;20100;-54
2023/09/06 13:17:35;;;;;;;6.45;5.32;;;29.00;75.80;;;;;;5025579;28;20022;-51
2023/09/06 13:20:21;;;;;;;7.15;5.63;;;29.10;75.50;;;;;;5024172;28;20028;-51
2023/09/06 13:23:07;;;;;;;7.72;5.80;;;29.20;76.10;;;;;;5024116;28;20063;-53
2023/09/06 13:25:53;;;;;;;6.40;5.80;;;29.40;76.20;;;;;;5018085;28;20034;-51
2023/09/06 13:28:39;;;;;;;7.03;5.70;;;29.50;75.50;;;;;;5023296;28;20053;-56
2023/09/06 13:31:25;;;;;;;8.57;5.40;;;29.50;74.20;;;;;;5030761;28;20045;-56
2023/09/06 13:34:11;;;;;;;6.15;5.10;;;29.50;72.60;;;;;;5020060;28;20104;-53
2023/09/06 13:36:57;;;;;;;7.40;5.25;;;29.40;72.90;;;;;;5025051;28;20029;-55
2023/09/06 13:39:43;;;;;;;5.95;5.35;;;29.60;73.50;;;;;;5030174;28;20445;-56
2023/09/06 13:42:29;;;;;;;7.00;5.88;;;29.80;73.80;;;;;;5013804;28;20049;-53
2023/09/06 13:45:15;;;;;;;7.68;5.15;;;30.10;73.90;;;;;;5028702;28;20500;-52
2023/09/06 13:48:01;;;;;;;5.82;5.20;;;30.30;73.20;;;;;;5028530;28;20143;-52
2023/09/06 13:50:48;;;;;;;7.40;5.07;;;30.30;73.10;;;;;;5013624;28;20087;-52
2023/09/06 13:53:33;;;;;;;7.60;5.65;;;30.30;73.90;;;;;;5027285;28;20392;-51
2023/09/06 13:56:19;;;;;;;10.68;5.38;;;30.40;71.20;;;;;;5027615;28;20142;-58
2023/09/06 13:59:05;;;;;;;7.38;4.95;;;30.40;70.80;;;;;;5014460;28;20172;-55
2023/09/06 14:01:51;;;;;;;6.25;5.05;;;30.30;71.10;;;;;;5026764;28;20076;-54
2023/09/06 14:04:37;;;;;;;6.47;5.10;;;30.50;71.40;;;;;;5026360;28;20021;-59
2023/09/06 14:07:23;;;;;;;12.18;5.28;;;30.70;71.00;;;;;;5026969;28;20116;-52
2023/09/06 14:10:09;;;;;;;7.35;5.38;;;31.00;71.50;;;;;;5028693;28;20085;-53
2023/09/06 14:12:55;;;;;;;6.70;4.97;;;31.20;70.30;;;;;;5029011;28;20042;-56
2023/09/06 14:15:41;;;;;;;6.05;5.20;;;31.20;69.80;;;;;;5028593;28;20026;-53
2023/09/06 14:18:27;;;;;;;5.15;4.70;;;31.20;69.60;;;;;;5006708;28;20030;-56
2023/09/06 14:21:20;;;;;;;6.20;5.28;;;31.40;69.20;;;;;;5010887;28;20034;-58
2023/09/06 14:24:06;;;;;;;6.95;4.90;;;31.40;68.40;;;;;;5014411;28;20029;-55
2023/09/06 14:26:52;;;;;;;5.35;4.50;;;31.50;67.30;;;;;;5027933;28;20025;-56
2023/09/06 14:29:38;;;;;;;6.25;5.47;;;31.70;67.80;;;;;;5017552;28;20053;-55
2023/09/06 14:32:23;;;;;;;5.55;5.00;;;31.80;68.50;;;;;;5017930;28;20030;-53
2023/09/06 14:35:09;;;;;;;5.75;5.15;;;32.10;68.50;;;;;;5032293;28;20033;-56